Time;durP1;ratioP1;P1;durP2;ratioP2;P2;SDS_P1;SDS_P2;PMS_P1;PMS_P2;Temp;Humidity;BMP_temperature;BMP_pressure;BME280_temperature;BME280_humidity;BME280_pressure;Samples;Min_cycle;Max_cycle;Signal;HPM_P1;HPM_P2
2023/05/28 00:01:54;;;;;;;;;;;;;;;18.57;nan;102298.66;5046779;28;20316;-85
2023/05/28 00:04:21;;;;;;;;;;;;;;;18.52;nan;102303.25;5043250;28;19928;-84
2023/05/28 00:06:48;;;;;;;;;;;;;;;18.49;nan;102303.75;5043326;28;19986;-84
2023/05/28 00:09:14;;;;;;;;;;;;;;;18.45;nan;102302.66;5046083;28;19928;-83
2023/05/28 00:11:39;;;;;;;;;;;;;;;18.38;nan;102295.56;5044380;28;19929;-84
2023/05/28 00:14:05;;;;;;;;;;;;;;;18.34;nan;102299.91;5046907;28;19917;-84
2023/05/28 00:16:30;;;;;;;;;;;;;;;18.30;nan;102301.47;5044760;28;20446;-84
2023/05/28 00:18:55;;;;;;;;;;;;;;;18.27;nan;102293.88;5045773;28;19924;-84
2023/05/28 00:21:20;;;;;;;;;;;;;;;18.23;nan;102284.63;5043563;28;20293;-85
2023/05/28 00:23:46;;;;;;;;;;;;;;;18.16;nan;102300.31;5041834;28;19917;-85
2023/05/28 00:26:12;;;;;;;;;;;;;;;18.08;nan;102298.06;5043000;28;19928;-84
2023/05/28 00:28:37;;;;;;;;;;;;;;;18.02;nan;102296.41;5044510;28;19927;-84
2023/05/28 00:31:02;;;;;;;;;;;;;;;17.97;nan;102291.78;5048066;28;19917;-84
2023/05/28 00:33:27;;;;;;;;;;;;;;;17.92;nan;102290.91;5043799;28;19935;-84
2023/05/28 00:35:55;;;;;;;;;;;;;;;17.88;nan;102290.63;5048206;28;19921;-84
2023/05/28 00:38:21;;;;;;;;;;;;;;;17.83;nan;102290.59;5045437;28;20003;-84
2023/05/28 00:40:46;;;;;;;;;;;;;;;17.79;nan;102292.19;5046819;28;20016;-84
2023/05/28 00:43:11;;;;;;;;;;;;;;;17.76;nan;102285.34;5044615;28;19921;-84
2023/05/28 00:45:37;;;;;;;;;;;;;;;17.74;nan;102287.50;5046689;28;19955;-84
2023/05/28 00:48:02;;;;;;;;;;;;;;;17.71;nan;102293.47;5046622;28;20024;-84
2023/05/28 00:50:28;;;;;;;;;;;;;;;17.64;nan;102290.13;5045630;28;19924;-85
2023/05/28 00:52:55;;;;;;;;;;;;;;;17.57;nan;102297.63;5047075;28;19962;-85
2023/05/28 00:55:20;;;;;;;;;;;;;;;17.52;nan;102292.16;5045752;28;19925;-85
2023/05/28 00:57:46;;;;;;;;;;;;;;;17.50;nan;102291.63;5047629;28;19917;-84
2023/05/28 01:00:11;;;;;;;;;;;;;;;17.45;nan;102281.56;5046930;28;20444;-84
2023/05/28 01:02:37;;;;;;;;;;;;;;;17.43;nan;102282.88;5046116;28;19923;-84
2023/05/28 01:05:03;;;;;;;;;;;;;;;17.39;nan;102273.63;5046849;28;19917;-85
2023/05/28 01:07:29;;;;;;;;;;;;;;;17.36;nan;102279.56;5044539;28;20573;-85
2023/05/28 01:09:55;;;;;;;;;;;;;;;17.31;nan;102277.63;5045891;28;20803;-84
2023/05/28 01:12:21;;;;;;;;;;;;;;;17.28;nan;102277.31;5044874;28;19929;-84
2023/05/28 01:14:47;;;;;;;;;;;;;;;17.23;nan;102278.06;5044871;28;19924;-84
2023/05/28 01:17:14;;;;;;;;;;;;;;;17.20;nan;102270.44;5046623;28;19951;-84
2023/05/28 01:19:42;;;;;;;;;;;;;;;17.17;nan;102266.38;5044032;28;19979;-83
2023/05/28 01:22:08;;;;;;;;;;;;;;;17.13;nan;102275.25;5042958;28;19916;-84
2023/05/28 01:24:36;;;;;;;;;;;;;;;17.09;nan;102266.84;5037867;28;19917;-84
2023/05/28 01:27:01;;;;;;;;;;;;;;;17.07;nan;102271.69;5042541;28;19944;-83
2023/05/28 01:29:27;;;;;;;;;;;;;;;17.04;nan;102277.59;5042757;28;20293;-84
2023/05/28 01:31:52;;;;;;;;;;;;;;;17.01;nan;102272.69;5044948;28;19924;-84
2023/05/28 01:34:17;;;;;;;;;;;;;;;16.96;nan;102269.94;5044555;28;19967;-84
2023/05/28 01:36:48;;;;;;;;;;;;;;;16.91;nan;102278.00;5046801;28;19963;-84
2023/05/28 01:39:15;;;;;;;;;;;;;;;16.85;nan;102282.53;5039857;28;19924;-84
2023/05/28 01:41:41;;;;;;;;;;;;;;;16.80;nan;102276.25;5041994;28;19924;-84
2023/05/28 01:44:06;;;;;;;;;;;;;;;16.80;nan;102276.25;5047903;28;20421;-84
2023/05/28 01:46:32;;;;;;;;;;;;;;;16.80;nan;102263.53;5044760;28;19932;-85
2023/05/28 01:48:58;;;;;;;;;;;;;;;16.76;nan;102264.28;5043443;28;19997;-84
2023/05/28 01:51:24;;;;;;;;;;;;;;;16.70;nan;102263.41;5045968;28;19924;-83
2023/05/28 01:53:49;;;;;;;;;;;;;;;16.66;nan;102256.81;5045059;28;19924;-84
2023/05/28 01:56:15;;;;;;;;;;;;;;;16.61;nan;102259.47;5043509;28;19917;-84
2023/05/28 01:58:40;;;;;;;;;;;;;;;16.57;nan;102250.22;5043895;28;19917;-84
2023/05/28 02:01:15;;;;;;;;;;;;;;;16.53;nan;102249.09;5044706;28;19956;-84
2023/05/28 02:03:41;;;;;;;;;;;;;;;16.48;nan;102243.59;5045886;28;19916;-84
2023/05/28 02:06:06;;;;;;;;;;;;;;;16.43;nan;102243.53;5042893;28;20365;-83
2023/05/28 02:08:32;;;;;;;;;;;;;;;16.39;nan;102245.94;5041757;28;20301;-84
2023/05/28 02:10:57;;;;;;;;;;;;;;;16.35;nan;102242.09;5045786;28;19927;-84
2023/05/28 02:13:22;;;;;;;;;;;;;;;16.32;nan;102246.09;5040938;28;19921;-84
2023/05/28 02:15:48;;;;;;;;;;;;;;;16.28;nan;102241.44;5044566;28;19917;-84
2023/05/28 02:18:14;;;;;;;;;;;;;;;16.25;nan;102236.53;5043484;28;19917;-84
2023/05/28 02:20:41;;;;;;;;;;;;;;;16.21;nan;102241.63;5040578;28;22274;-84
2023/05/28 02:23:06;;;;;;;;;;;;;;;16.17;nan;102240.50;5043134;28;20377;-84
2023/05/28 02:25:31;;;;;;;;;;;;;;;16.13;nan;102246.63;5043128;28;19920;-84
2023/05/28 02:27:58;;;;;;;;;;;;;;;16.08;nan;102241.16;5042695;28;19920;-84
2023/05/28 02:30:23;;;;;;;;;;;;;;;16.05;nan;102242.47;5058827;28;20436;-84
2023/05/28 02:32:48;;;;;;;;;;;;;;;16.01;nan;102247.56;5042896;28;20054;-84
2023/05/28 02:35:14;;;;;;;;;;;;;;;15.99;nan;102243.50;5045355;28;20304;-84
2023/05/28 02:37:39;;;;;;;;;;;;;;;15.95;nan;102248.53;5038494;28;19925;-84
2023/05/28 02:40:05;;;;;;;;;;;;;;;15.88;nan;102245.19;5041796;28;19917;-84
2023/05/28 02:42:31;;;;;;;;;;;;;;;15.84;nan;102251.34;5043895;28;20418;-84
2023/05/28 02:44:56;;;;;;;;;;;;;;;15.78;nan;102247.72;5044772;28;19932;-84
2023/05/28 02:47:21;;;;;;;;;;;;;;;15.75;nan;102250.13;5042411;28;19928;-84
2023/05/28 02:49:47;;;;;;;;;;;;;;;15.71;nan;102249.78;5039191;28;19929;-84
2023/05/28 02:52:12;;;;;;;;;;;;;;;15.68;nan;102251.09;5044129;28;19917;-84
2023/05/28 02:54:37;;;;;;;;;;;;;;;15.66;nan;102249.72;5041573;28;19924;-83
2023/05/28 02:57:03;;;;;;;;;;;;;;;15.63;nan;102255.63;5046641;28;19920;-84
2023/05/28 02:59:28;;;;;;;;;;;;;;;15.60;nan;102250.69;5043278;28;20775;-84
2023/05/28 03:01:53;;;;;;;;;;;;;;;15.58;nan;102255.47;5040562;28;19917;-85
2023/05/28 03:04:19;;;;;;;;;;;;;;;15.57;nan;102256.53;5044038;28;19916;-84
2023/05/28 03:06:44;;;;;;;;;;;;;;;15.56;nan;102246.81;5043810;28;19920;-84
2023/05/28 03:09:09;;;;;;;;;;;;;;;15.54;nan;102248.94;5043480;28;20420;-84
2023/05/28 03:11:35;;;;;;;;;;;;;;;15.52;nan;102259.16;5043649;28;20391;-84
2023/05/28 03:14:00;;;;;;;;;;;;;;;15.52;nan;102256.47;5039471;28;19917;-85
2023/05/28 03:16:25;;;;;;;;;;;;;;;15.49;nan;102256.97;5043307;28;20480;-85
2023/05/28 03:18:51;;;;;;;;;;;;;;;15.47;nan;102259.09;5035585;28;20043;-84
2023/05/28 03:21:16;;;;;;;;;;;;;;;15.47;nan;102257.22;5041787;28;20400;-84
2023/05/28 03:23:42;;;;;;;;;;;;;;;15.47;nan;102254.50;5042707;28;19925;-84
2023/05/28 03:26:07;;;;;;;;;;;;;;;15.46;nan;102254.75;5035151;28;19967;-85
2023/05/28 03:28:32;;;;;;;;;;;;;;;15.47;nan;102256.38;5036207;28;19963;-84
2023/05/28 03:30:58;;;;;;;;;;;;;;;15.48;nan;102258.03;5037237;28;20059;-85
2023/05/28 03:33:23;;;;;;;;;;;;;;;15.49;nan;102254.25;5040419;28;20293;-85
2023/05/28 03:35:48;;;;;;;;;;;;;;;15.47;nan;102257.22;5040802;28;20146;-84
2023/05/28 03:38:14;;;;;;;;;;;;;;;15.48;nan;102261.53;5044175;28;20090;-85
2023/05/28 03:40:40;;;;;;;;;;;;;;;15.48;nan;102264.25;5041233;28;19921;-84
2023/05/28 03:43:05;;;;;;;;;;;;;;;15.49;nan;102257.78;5041564;28;19924;-84
2023/05/28 03:45:31;;;;;;;;;;;;;;;15.54;nan;102254.34;5040416;28;19920;-85
2023/05/28 03:47:56;;;;;;;;;;;;;;;15.57;nan;102260.06;5040985;28;19973;-84
2023/05/28 03:50:22;;;;;;;;;;;;;;;15.59;nan;102257.16;5039509;28;20174;-84
2023/05/28 03:52:47;;;;;;;;;;;;;;;15.61;nan;102257.72;5045055;28;20000;-84
2023/05/28 03:55:13;;;;;;;;;;;;;;;15.65;nan;102253.50;5036729;28;20015;-84
2023/05/28 03:57:39;;;;;;;;;;;;;;;15.66;nan;102255.94;5042901;28;19963;-84
2023/05/28 04:00:06;;;;;;;;;;;;;;;15.70;nan;102251.69;5042611;28;19924;-84
2023/05/28 04:02:32;;;;;;;;;;;;;;;15.75;nan;102256.34;5043001;28;20510;-85
2023/05/28 04:04:57;;;;;;;;;;;;;;;15.81;nan;102252.69;5043324;28;20043;-84
2023/05/28 04:07:23;;;;;;;;;;;;;;;15.86;nan;102243.81;5044111;28;19989;-84
2023/05/28 04:09:49;;;;;;;;;;;;;;;15.97;nan;102257.22;5042817;28;19927;-85
2023/05/28 04:12:14;;;;;;;;;;;;;;;16.08;nan;102251.97;5043695;28;19917;-85
2023/05/28 04:14:40;;;;;;;;;;;;;;;16.20;nan;102250.00;5042416;28;20351;-85
2023/05/28 04:17:06;;;;;;;;;;;;;;;16.28;nan;102255.78;5041149;28;20044;-85
2023/05/28 04:19:31;;;;;;;;;;;;;;;16.34;nan;102248.59;5041345;28;20467;-85
2023/05/28 04:21:57;;;;;;;;;;;;;;;16.40;nan;102255.69;5040741;28;19948;-85
2023/05/28 04:24:22;;;;;;;;;;;;;;;16.48;nan;102249.81;5043072;28;19924;-85
2023/05/28 04:26:47;;;;;;;;;;;;;;;16.54;nan;102250.72;5040661;28;19920;-85
2023/05/28 04:29:15;;;;;;;;;;;;;;;16.60;nan;102241.59;5041333;28;19921;-85
2023/05/28 04:31:40;;;;;;;;;;;;;;;16.67;nan;102241.44;5039338;28;19947;-85
2023/05/28 04:34:06;;;;;;;;;;;;;;;16.75;nan;102241.81;5041865;28;19924;-85
2023/05/28 04:36:32;;;;;;;;;;;;;;;16.82;nan;102241.63;5042944;28;19921;-86
2023/05/28 04:39:00;;;;;;;;;;;;;;;16.89;nan;102244.97;5043323;28;19921;-85
2023/05/28 04:41:26;;;;;;;;;;;;;;;16.96;nan;102248.28;5041196;28;19975;-86
2023/05/28 04:43:51;;;;;;;;;;;;;;;17.05;nan;102244.03;5040988;28;19959;-85
2023/05/28 04:46:17;;;;;;;;;;;;;;;17.17;nan;102244.69;5036326;28;19923;-85
2023/05/28 04:48:42;;;;;;;;;;;;;;;17.32;nan;102251.34;5040395;28;19929;-86
2023/05/28 04:51:08;;;;;;;;;;;;;;;17.45;nan;102250.94;5049295;28;19952;-86
2023/05/28 04:53:33;;;;;;;;;;;;;;;17.55;nan;102248.28;5047001;28;19921;-84
2023/05/28 04:55:59;;;;;;;;;;;;;;;17.64;nan;102254.06;5045369;28;19927;-85
2023/05/28 04:58:25;;;;;;;;;;;;;;;17.72;nan;102251.72;5043183;28;19924;-85
2023/05/28 05:00:51;;;;;;;;;;;;;;;17.78;nan;102255.31;5047871;28;20399;-85
2023/05/28 05:03:16;;;;;;;;;;;;;;;17.88;nan;102259.97;5045869;28;19956;-85
2023/05/28 05:05:41;;;;;;;;;;;;;;;17.96;nan;102251.38;5043443;28;20014;-86
2023/05/28 05:08:08;;;;;;;;;;;;;;;18.07;nan;102248.44;5043872;28;19917;-86
2023/05/28 05:10:34;;;;;;;;;;;;;;;18.19;nan;102248.25;5060464;28;19983;-85
2023/05/28 05:12:59;;;;;;;;;;;;;;;18.31;nan;102248.03;5045909;28;19927;-86
2023/05/28 05:15:26;;;;;;;;;;;;;;;18.42;nan;102255.16;5048370;28;19916;-86
2023/05/28 05:17:52;;;;;;;;;;;;;;;18.56;nan;102247.34;5048209;28;19973;-86
2023/05/28 05:20:17;;;;;;;;;;;;;;;18.68;nan;102242.56;5048349;28;19924;-86
2023/05/28 05:22:43;;;;;;;;;;;;;;;18.79;nan;102243.38;5045582;28;19925;-85
2023/05/28 05:25:08;;;;;;;;;;;;;;;18.86;nan;102239.34;5047050;28;20328;-86
2023/05/28 05:27:37;;;;;;;;;;;;;;;18.96;nan;102236.63;5046714;28;20152;-86
2023/05/28 05:30:06;;;;;;;;;;;;;;;19.07;nan;102237.50;5044750;28;19972;-86
2023/05/28 05:32:31;;;;;;;;;;;;;;;19.22;nan;102239.41;5042898;28;19921;-85
2023/05/28 05:34:57;;;;;;;;;;;;;;;19.36;nan;102237.78;5043101;28;20013;-86
2023/05/28 05:37:23;;;;;;;;;;;;;;;19.52;nan;102241.31;5041050;28;20368;-86
2023/05/28 05:39:48;;;;;;;;;;;;;;;19.65;nan;102245.44;5045389;28;19923;-85
2023/05/28 05:42:14;;;;;;;;;;;;;;;19.79;nan;102241.91;5048720;28;19916;-85
2023/05/28 05:44:39;;;;;;;;;;;;;;;19.97;nan;102242.44;5042228;28;19927;-85
2023/05/28 05:47:04;;;;;;;;;;;;;;;20.09;nan;102251.91;5042464;28;20011;-86
2023/05/28 05:49:30;;;;;;;;;;;;;;;20.21;nan;102246.97;5044876;28;19932;-85
2023/05/28 05:51:55;;;;;;;;;;;;;;;20.34;nan;102251.03;5043722;28;19924;-86
2023/05/28 05:54:21;;;;;;;;;;;;;;;20.47;nan;102253.22;5043306;28;20066;-85
2023/05/28 05:56:46;;;;;;;;;;;;;;;20.63;nan;102243.03;5042468;28;19943;-85
2023/05/28 05:59:11;;;;;;;;;;;;;;;20.78;nan;102237.53;5043520;28;20331;-84
2023/05/28 06:01:36;;;;;;;;;;;;;;;20.87;nan;102235.03;5046602;28;20364;-85
2023/05/28 06:04:02;;;;;;;;;;;;;;;20.97;nan;102239.59;5045992;28;19925;-85
2023/05/28 06:06:28;;;;;;;;;;;;;;;21.12;nan;102236.78;5042919;28;19928;-85
2023/05/28 06:08:54;;;;;;;;;;;;;;;21.22;nan;102244.09;5042206;28;19924;-86
2023/05/28 06:11:19;;;;;;;;;;;;;;;21.33;nan;102241.00;5046138;28;19921;-86
2023/05/28 06:13:45;;;;;;;;;;;;;;;21.46;nan;102231.38;5042896;28;19921;-86
2023/05/28 06:16:11;;;;;;;;;;;;;;;21.61;nan;102238.63;5044750;28;19921;-84
2023/05/28 06:18:36;;;;;;;;;;;;;;;21.81;nan;102238.44;5044289;28;19932;-86
2023/05/28 06:21:03;;;;;;;;;;;;;;;22.02;nan;102234.38;5044153;28;20007;-85
2023/05/28 06:23:28;;;;;;;;;;;;;;;22.16;nan;102236.47;5041009;28;19920;-85
2023/05/28 06:25:53;;;;;;;;;;;;;;;22.26;nan;102231.72;5044385;28;20312;-84
2023/05/28 06:28:19;;;;;;;;;;;;;;;22.42;nan;102236.97;5043989;28;20018;-85
2023/05/28 06:30:44;;;;;;;;;;;;;;;22.59;nan;102227.19;5042694;28;20015;-84
2023/05/28 06:33:10;;;;;;;;;;;;;;;22.81;nan;102231.28;5041873;28;19921;-85
2023/05/28 06:35:35;;;;;;;;;;;;;;;22.98;nan;102225.31;5043333;28;19947;-86
2023/05/28 06:38:01;;;;;;;;;;;;;;;23.15;nan;102226.41;5043737;28;19927;-85
2023/05/28 06:40:26;;;;;;;;;;;;;;;23.29;nan;102222.94;5044515;28;19921;-84
2023/05/28 06:42:51;;;;;;;;;;;;;;;23.46;nan;102223.19;5041897;28;19983;-85
2023/05/28 06:45:18;;;;;;;;;;;;;;;23.62;nan;102221.03;5042958;28;19924;-85
2023/05/28 06:47:43;;;;;;;;;;;;;;;23.76;nan;102228.19;5042334;28;19923;-85
2023/05/28 06:50:09;;;;;;;;;;;;;;;23.92;nan;102222.44;5042087;28;19921;-86
2023/05/28 06:52:34;;;;;;;;;;;;;;;24.04;nan;102234.47;5043009;28;20007;-86
2023/05/28 06:55:00;;;;;;;;;;;;;;;24.14;nan;102236.22;5042229;28;19921;-87
2023/05/28 06:57:25;;;;;;;;;;;;;;;24.24;nan;102238.78;5044295;28;19925;-85
2023/05/28 06:59:50;;;;;;;;;;;;;;;24.33;nan;102233.41;5042911;28;19923;-84
2023/05/28 07:02:16;;;;;;;;;;;;;;;24.45;nan;102232.91;5039666;28;19975;-84
2023/05/28 07:04:41;;;;;;;;;;;;;;;24.62;nan;102222.13;5044758;28;20136;-84
2023/05/28 07:07:07;;;;;;;;;;;;;;;24.81;nan;102232.94;5045127;28;20377;-84
2023/05/28 07:09:32;;;;;;;;;;;;;;;25.02;nan;102231.38;5043598;28;20029;-84
2023/05/28 07:11:57;;;;;;;;;;;;;;;25.24;nan;102227.84;5037810;28;19967;-84
2023/05/28 07:14:23;;;;;;;;;;;;;;;25.43;nan;102236.69;5043607;28;20007;-85
2023/05/28 07:16:48;;;;;;;;;;;;;;;25.54;nan;102238.06;5044386;28;20000;-84
2023/05/28 07:19:14;;;;;;;;;;;;;;;25.73;nan;102242.56;5042074;28;20438;-84
2023/05/28 07:21:39;;;;;;;;;;;;;;;25.90;nan;102234.41;5043426;28;20426;-84
2023/05/28 07:24:07;;;;;;;;;;;;;;;26.06;nan;102232.88;5043233;28;19917;-84
2023/05/28 07:26:33;;;;;;;;;;;;;;;26.16;nan;102237.25;5039556;28;19982;-84
2023/05/28 07:28:59;;;;;;;;;;;;;;;26.22;nan;102236.00;5034174;28;20384;-84
2023/05/28 07:31:25;;;;;;;;;;;;;;;26.34;nan;102227.94;5039846;28;19973;-85
2023/05/28 07:33:50;;;;;;;;;;;;;;;26.50;nan;102236.59;5041953;28;19921;-83
2023/05/28 07:36:15;;;;;;;;;;;;;;;26.60;nan;102230.00;5040086;28;21326;-85
2023/05/28 07:38:42;;;;;;;;;;;;;;;26.66;nan;102229.50;5039975;28;19962;-84
2023/05/28 07:41:07;;;;;;;;;;;;;;;26.76;nan;102233.91;5041704;28;19921;-84
2023/05/28 07:43:32;;;;;;;;;;;;;;;26.80;nan;102230.19;5041693;28;19925;-83
2023/05/28 07:45:57;;;;;;;;;;;;;;;26.82;nan;102226.28;5039978;28;19928;-83
2023/05/28 07:48:23;;;;;;;;;;;;;;;26.90;nan;102222.72;5039001;28;19927;-83
2023/05/28 07:50:49;;;;;;;;;;;;;;;27.04;nan;102215.16;5038876;28;19992;-84
2023/05/28 07:53:16;;;;;;;;;;;;;;;27.18;nan;102207.53;5035105;28;19942;-84
2023/05/28 07:55:41;;;;;;;;;;;;;;;27.36;nan;102211.88;5043745;28;20411;-85
2023/05/28 07:58:07;;;;;;;;;;;;;;;27.48;nan;102204.91;5039634;28;19925;-84
2023/05/28 08:00:32;;;;;;;;;;;;;;;27.53;nan;102210.22;5040950;28;20008;-84
2023/05/28 08:02:57;;;;;;;;;;;;;;;27.61;nan;102203.88;5039269;28;19955;-84
2023/05/28 08:05:24;;;;;;;;;;;;;;;27.72;nan;102196.91;5041300;28;19924;-84
2023/05/28 08:07:49;;;;;;;;;;;;;;;27.84;nan;102202.56;5038933;28;20401;-83
2023/05/28 08:10:15;;;;;;;;;;;;;;;27.92;nan;102204.44;5040933;28;20007;-83
2023/05/28 08:12:40;;;;;;;;;;;;;;;28.07;nan;102199.53;5037420;28;19978;-83
2023/05/28 08:15:05;;;;;;;;;;;;;;;28.13;nan;102204.50;5037198;28;19921;-85
2023/05/28 08:17:34;;;;;;;;;;;;;;;28.19;nan;102202.38;5036283;28;19927;-85
2023/05/28 08:19:59;;;;;;;;;;;;;;;28.39;nan;102201.66;5037789;28;20011;-85
2023/05/28 08:22:25;;;;;;;;;;;;;;;28.61;nan;102205.22;5039103;28;19950;-84
2023/05/28 08:24:50;;;;;;;;;;;;;;;28.63;nan;102200.97;5040488;28;19921;-83
2023/05/28 08:27:15;;;;;;;;;;;;;;;28.63;nan;102206.50;5040774;28;20418;-83
2023/05/28 08:29:41;;;;;;;;;;;;;;;28.62;nan;102204.06;5037385;28;20020;-84
2023/05/28 08:32:06;;;;;;;;;;;;;;;28.67;nan;102198.34;5041602;28;19968;-86
2023/05/28 08:34:34;;;;;;;;;;;;;;;28.81;nan;102199.69;5041394;28;19924;-84
2023/05/28 08:36:59;;;;;;;;;;;;;;;28.89;nan;102196.09;5034052;28;20393;-83
2023/05/28 08:39:26;;;;;;;;;;;;;;;28.83;nan;102193.84;5033630;28;19920;-85
2023/05/28 08:41:52;;;;;;;;;;;;;;;28.91;nan;102184.72;5037461;28;20047;-83
2023/05/28 08:44:18;;;;;;;;;;;;;;;29.05;nan;102188.00;5036692;28;19965;-84
2023/05/28 08:46:43;;;;;;;;;;;;;;;29.10;nan;102187.81;5037586;28;19921;-84
2023/05/28 08:49:10;;;;;;;;;;;;;;;29.23;nan;102190.59;5036584;28;19924;-84
2023/05/28 08:51:36;;;;;;;;;;;;;;;29.29;nan;102179.00;5039721;28;19991;-84
2023/05/28 08:54:02;;;;;;;;;;;;;;;29.37;nan;102177.28;5036880;28;19924;-83
2023/05/28 08:56:28;;;;;;;;;;;;;;;29.52;nan;102171.13;5039001;28;20453;-84
2023/05/28 08:58:53;;;;;;;;;;;;;;;29.58;nan;102177.25;5041314;28;19936;-84
2023/05/28 09:01:19;;;;;;;;;;;;;;;29.59;nan;102176.88;5037809;28;20039;-84
2023/05/28 09:03:45;;;;;;;;;;;;;;;29.67;nan;102176.00;5040658;28;19921;-84
2023/05/28 09:06:12;;;;;;;;;;;;;;;29.85;nan;102167.50;5039209;28;19991;-86
2023/05/28 09:08:37;;;;;;;;;;;;;;;30.05;nan;102166.59;5035945;28;20398;-84
2023/05/28 09:11:10;;;;;;;;;;;;;;;30.13;nan;102160.13;5038412;28;19979;-84
2023/05/28 09:13:39;;;;;;;;;;;;;;;30.26;nan;102161.72;5054572;28;19921;-84
2023/05/28 09:16:05;;;;;;;;;;;;;;;30.37;nan;102160.09;5038782;28;19920;-83
2023/05/28 09:18:31;;;;;;;;;;;;;;;30.40;nan;102163.31;5038810;28;19927;-85
2023/05/28 09:20:59;;;;;;;;;;;;;;;30.54;nan;102166.50;5034284;28;19921;-85
2023/05/28 09:23:28;;;;;;;;;;;;;;;30.72;nan;102164.28;5040753;28;19928;-84
2023/05/28 09:25:56;;;;;;;;;;;;;;;30.93;nan;102162.13;5033582;28;20012;-84
2023/05/28 09:28:25;;;;;;;;;;;;;;;31.13;nan;102154.75;5042790;28;19924;-84
2023/05/28 09:30:51;;;;;;;;;;;;;;;31.29;nan;102152.84;5038179;28;19921;-84
2023/05/28 09:33:17;;;;;;;;;;;;;;;31.40;nan;102153.09;5041095;28;20305;-84
2023/05/28 09:35:43;;;;;;;;;;;;;;;31.45;nan;102148.13;5043618;28;20320;-83
2023/05/28 09:38:10;;;;;;;;;;;;;;;31.46;nan;102146.97;5040447;28;19921;-83
2023/05/28 09:40:40;;;;;;;;;;;;;;;31.48;nan;102143.84;5043037;28;20440;-82
2023/05/28 09:43:06;;;;;;;;;;;;;;;31.39;nan;102135.69;5037981;28;19964;-84
2023/05/28 09:45:33;;;;;;;;;;;;;;;31.37;nan;102138.00;5037889;28;20003;-84
2023/05/28 09:47:58;;;;;;;;;;;;;;;31.50;nan;102136.78;5040319;28;20375;-85
2023/05/28 09:50:24;;;;;;;;;;;;;;;31.66;nan;102141.50;5039533;28;19924;-83
2023/05/28 09:52:53;;;;;;;;;;;;;;;31.81;nan;102133.22;5040746;28;19966;-84
2023/05/28 09:55:18;;;;;;;;;;;;;;;31.99;nan;102128.09;5035071;28;20023;-83
2023/05/28 09:57:54;;;;;;;;;;;;;;;32.15;nan;102122.50;5041269;28;20031;-85
2023/05/28 10:00:26;;;;;;;;;;;;;;;32.14;nan;102124.47;5040414;28;19975;-86
2023/05/28 10:03:02;;;;;;;;;;;;;;;32.16;nan;102124.91;5042660;28;20059;-85
2023/05/28 10:05:31;;;;;;;;;;;;;;;32.11;nan;102116.84;5036133;28;20353;-85
2023/05/28 10:07:58;;;;;;;;;;;;;;;32.13;nan;102116.50;5040291;28;19921;-85
2023/05/28 10:10:23;;;;;;;;;;;;;;;32.22;nan;102116.28;5042163;28;20046;-85
2023/05/28 10:12:53;;;;;;;;;;;;;;;32.36;nan;102116.63;5038684;28;20266;-85
2023/05/28 10:15:19;;;;;;;;;;;;;;;32.48;nan;102119.25;5039169;28;20655;-85
2023/05/28 10:17:44;;;;;;;;;;;;;;;32.54;nan;102119.78;5043057;28;19943;-85
2023/05/28 10:20:10;;;;;;;;;;;;;;;32.57;nan;102116.28;5042875;28;19917;-85
2023/05/28 10:22:37;;;;;;;;;;;;;;;32.66;nan;102108.50;5045186;28;19921;-85
2023/05/28 10:25:03;;;;;;;;;;;;;;;32.77;nan;102112.31;5044174;28;19924;-82
2023/05/28 10:27:30;;;;;;;;;;;;;;;32.90;nan;102113.78;5040937;28;19920;-85
2023/05/28 10:29:55;;;;;;;;;;;;;;;33.09;nan;102109.38;5037744;28;20003;-85
2023/05/28 10:32:20;;;;;;;;;;;;;;;33.23;nan;102107.63;5042693;28;20174;-86
2023/05/28 10:34:46;;;;;;;;;;;;;;;33.41;nan;102113.53;5041729;28;19923;-85
2023/05/28 10:37:13;;;;;;;;;;;;;;;33.59;nan;102111.03;5043729;28;20019;-85
2023/05/28 10:39:43;;;;;;;;;;;;;;;33.74;nan;102107.28;5039754;28;19920;-85
2023/05/28 10:42:09;;;;;;;;;;;;;;;33.87;nan;102119.81;5044784;28;19972;-85
2023/05/28 10:44:52;;;;;;;;;;;;;;;33.97;nan;102109.25;5041264;28;19931;-85
2023/05/28 10:47:18;;;;;;;;;;;;;;;34.11;nan;102110.25;5043179;28;19917;-85
2023/05/28 10:50:00;;;;;;;;;;;;;;;34.18;nan;102110.34;5042462;28;19928;-84
2023/05/28 10:52:26;;;;;;;;;;;;;;;34.23;nan;102100.84;5040633;28;20007;-85
2023/05/28 10:54:52;;;;;;;;;;;;;;;34.29;nan;102106.88;5044330;28;20451;-85
2023/05/28 10:57:19;;;;;;;;;;;;;;;34.33;nan;102111.31;5033418;28;19928;-84
2023/05/28 10:59:45;;;;;;;;;;;;;;;34.44;nan;102111.47;5037604;28;20321;-85
2023/05/28 11:02:11;;;;;;;;;;;;;;;34.52;nan;102110.38;5037052;28;20044;-85
2023/05/28 11:04:37;;;;;;;;;;;;;;;34.54;nan;102110.81;5055688;28;19920;-85
2023/05/28 11:07:03;;;;;;;;;;;;;;;34.51;nan;102117.94;5040783;28;19993;-84
2023/05/28 11:09:28;;;;;;;;;;;;;;;34.51;nan;102109.59;5039205;28;19925;-85
2023/05/28 11:12:02;;;;;;;;;;;;;;;34.58;nan;102105.28;5040239;28;20464;-85
2023/05/28 11:14:35;;;;;;;;;;;;;;;34.57;nan;102103.69;5036504;28;19952;-84
2023/05/28 11:17:00;;;;;;;;;;;;;;;34.52;nan;102099.25;5035778;28;19916;-86
2023/05/28 11:19:26;;;;;;;;;;;;;;;34.42;nan;102100.72;5039644;28;19937;-85
2023/05/28 11:21:52;;;;;;;;;;;;;;;34.43;nan;102102.31;5042641;28;20400;-85
2023/05/28 11:24:17;;;;;;;;;;;;;;;34.54;nan;102100.47;5034843;28;19928;-83
2023/05/28 11:26:42;;;;;;;;;;;;;;;34.65;nan;102089.47;5033631;28;19925;-85
2023/05/28 11:29:08;;;;;;;;;;;;;;;34.59;nan;102095.75;5037632;28;19928;-85
2023/05/28 11:31:40;;;;;;;;;;;;;;;34.52;nan;102094.50;5038216;28;20372;-86
2023/05/28 11:34:06;;;;;;;;;;;;;;;34.58;nan;102094.16;5036210;28;20667;-86
2023/05/28 11:36:37;;;;;;;;;;;;;;;34.63;nan;102091.00;5035164;28;19962;-87
2023/05/28 11:39:03;;;;;;;;;;;;;;;34.78;nan;102084.41;5029665;28;20078;-85
2023/05/28 11:41:29;;;;;;;;;;;;;;;34.92;nan;102083.78;5037199;28;20465;-85
2023/05/28 11:43:54;;;;;;;;;;;;;;;35.04;nan;102077.94;5033257;28;20358;-86
2023/05/28 11:46:22;;;;;;;;;;;;;;;35.17;nan;102070.09;5031820;28;20355;-85
2023/05/28 11:48:47;;;;;;;;;;;;;;;35.28;nan;102065.41;5033887;28;20380;-85
2023/05/28 11:51:12;;;;;;;;;;;;;;;35.42;nan;102071.13;5035845;28;19925;-86
2023/05/28 11:53:41;;;;;;;;;;;;;;;35.49;nan;102064.78;5036269;28;20454;-85
2023/05/28 11:56:10;;;;;;;;;;;;;;;35.48;nan;102069.56;5031134;28;19966;-85
2023/05/28 11:58:43;;;;;;;;;;;;;;;35.46;nan;102071.94;5034368;28;19924;-84
2023/05/28 12:01:12;;;;;;;;;;;;;;;35.47;nan;102056.03;5036297;28;20015;-85
2023/05/28 12:03:37;;;;;;;;;;;;;;;35.59;nan;102058.50;5035137;28;19921;-84
2023/05/28 12:06:03;;;;;;;;;;;;;;;35.69;nan;102058.56;5034940;28;20299;-86
2023/05/28 12:08:28;;;;;;;;;;;;;;;35.72;nan;102054.97;5033690;28;20327;-85
2023/05/28 12:10:59;;;;;;;;;;;;;;;35.81;nan;102053.84;5032352;28;19928;-84
2023/05/28 12:13:29;;;;;;;;;;;;;;;35.86;nan;102051.50;5035048;28;19970;-85
2023/05/28 12:16:04;;;;;;;;;;;;;;;35.81;nan;102049.06;5034210;28;20375;-85
2023/05/28 12:18:30;;;;;;;;;;;;;;;35.80;nan;102041.88;5031483;28;19921;-85
2023/05/28 12:20:58;;;;;;;;;;;;;;;35.87;nan;102041.94;5030065;28;20245;-86
2023/05/28 12:23:23;;;;;;;;;;;;;;;35.90;nan;102048.72;5036041;28;19928;-85
2023/05/28 12:25:49;;;;;;;;;;;;;;;35.97;nan;102051.56;5045266;28;20394;-84
2023/05/28 12:28:18;;;;;;;;;;;;;;;36.06;nan;102043.63;5035973;28;19927;-86
2023/05/28 12:30:45;;;;;;;;;;;;;;;36.09;nan;102047.63;5032068;28;19936;-87
2023/05/28 12:33:11;;;;;;;;;;;;;;;36.00;nan;102045.19;5034314;28;20055;-85
2023/05/28 12:35:37;;;;;;;;;;;;;;;36.01;nan;102038.44;5033984;28;20015;-86
2023/05/28 12:38:03;;;;;;;;;;;;;;;36.09;nan;102042.88;5035368;28;19927;-87
2023/05/28 12:40:28;;;;;;;;;;;;;;;36.17;nan;102038.09;5039463;28;20015;-86
2023/05/28 12:42:54;;;;;;;;;;;;;;;36.16;nan;102037.31;5042129;28;19920;-86
2023/05/28 12:45:19;;;;;;;;;;;;;;;36.13;nan;102038.09;5031390;28;20029;-86
2023/05/28 12:47:45;;;;;;;;;;;;;;;36.22;nan;102030.13;5030796;28;20388;-85
2023/05/28 12:50:10;;;;;;;;;;;;;;;36.30;nan;102028.19;5033577;28;20393;-86
2023/05/28 12:52:36;;;;;;;;;;;;;;;36.38;nan;102027.03;5029372;28;20023;-83